• Join FlightAware (Why Join?)
  • Login
  • US Flag 
12:04PM EDT


 

Airport Tracker/Info


-or-


 

Live Flight TrackerFlight Track Log ✈ CSN3490 ✈ 21-Apr-2013 ✈ ZPPP / KMG - ZGGG / CAN

Flight Track Log - Related Links

Times and Time Zones

All times are in EDT time to prevent confusion due to time zone crossing. See the CSN3490 flight status page for this flight to view local times or setup timezone preferences in your user account.

Time Position Orientation Groundspeed Altitude Reporting Facility
EDT Latitude Longitude Course Direction KTS MPH feet Rate Location/Type
10:25AM 25.0826 103.0791 98° East  Level Estimated
10:26AM 25.0631 103.2290 98° East  Level Estimated
10:27AM 25.0434 103.3788 98° East  Level Estimated
10:28AM 25.0236 103.5285 98° East  Level Estimated
10:29AM 25.0036 103.6783 98° East  Level Estimated
10:30AM 24.9835 103.8279 98° East  Level Estimated
10:31AM 24.9632 103.9775 98° East  Level Estimated
10:32AM 24.9428 104.1271 99° East  Level Estimated
10:33AM 24.9222 104.2767 99° East  Level Estimated
10:34AM 24.9015 104.4261 99° East  Level Estimated
10:35AM 24.8806 104.5756 99° East  Level Estimated
10:36AM 24.8596 104.7249 99° East  Level Estimated
10:37AM 24.8385 104.8743 99° East  Level Estimated
10:38AM 24.8172 105.0235 99° East  Level Estimated
10:39AM 24.7957 105.1728 99° East  Level Estimated
10:40AM 24.7741 105.3219 99° East  Level Estimated
10:41AM 24.7523 105.4710 99° East  Level Estimated
10:42AM 24.7304 105.6201 99° East  Level Estimated
10:43AM 24.7084 105.7691 99° East  Level Estimated
10:44AM 24.6862 105.9181 99° East  Level Estimated
10:45AM 24.6639 106.0670 99° East  Level Estimated
10:46AM 24.6414 106.2158 99° East  Level Estimated
10:47AM 24.6187 106.3646 99° East  Level Estimated
10:48AM 24.5959 106.5134 100° East  Level Estimated
10:49AM 24.5730 106.6621 100° East  Level Estimated
10:50AM 24.5499 106.8107 100° East  Level Estimated
10:51AM 24.5267 106.9593 100° East  Level Estimated
10:52AM 24.5034 107.1078 100° East  Level Estimated
10:53AM 24.4799 107.2563 100° East  Level Estimated
10:54AM 24.4562 107.4047 100° East  Level Estimated
10:55AM 24.4324 107.5530 100° East  Level Estimated
10:56AM 24.4084 107.7013 100° East  Level Estimated
10:57AM 24.3844 107.8496 100° East  Level Estimated
10:58AM 24.3601 107.9978 100° East  Level Estimated
10:59AM 24.3358 108.1459 100° East  Level Estimated
11:00AM 24.3112 108.2940 100° East  Level Estimated
11:01AM 24.2866 108.4420 100° East  Level Estimated
11:02AM 24.2618 108.5900 100° East  Level Estimated
11:03AM 24.2368 108.7379 100° East  Level Estimated
11:04AM 24.2117 108.8857 101° East  Level Estimated
11:05AM 24.1865 109.0335 101° East  Level Estimated
11:06AM 24.1611 109.1812 101° East  Level Estimated
11:07AM 24.1356 109.3289 101° East  Level Estimated
11:07AM 23.4210 110.5690 101° East 490 564 33,000  Level FlightAware
11:07AM 23.4060 110.6430 102° East 490 564 33,000 -600 Level FlightAware
11:08AM 24.1099 109.4765 101° East  Level Estimated
11:08AM 23.3790 110.7690 103° East 494 568 32,200  Level FlightAware
11:09AM 23.3650 110.8370 103° East 494 568 32,000 -600 Descending FlightAware
11:10AM 23.3340 110.9800 103° East 491 565 31,400 -600 Descending FlightAware
11:10AM 23.3140 111.0760 103° East 487 560 31,100 -1,020 Descending FlightAware
11:11AM 23.2960 111.1710 102° East 479 551 30,100 -1,680 Descending FlightAware
11:12AM 23.2780 111.2770 100° East 472 543 28,800 -1,680 Descending FlightAware
11:12AM 23.2650 111.3560 100° East 466 536 27,900 -1,080 Descending FlightAware
11:13AM 23.2460 111.4750 100° East 462 532 27,200 -1,800 Descending FlightAware
11:14AM 23.2280 111.5730 101° East 446 513 25,100 -2,400 Descending FlightAware
11:15AM 23.2120 111.6690 100° East 434 499 23,800 -1,680 Descending FlightAware
11:15AM 23.2000 111.7410 100° East 430 495 22,900 -720 Descending FlightAware
11:16AM 23.1860 111.8280 100° East 430 495 22,900  Level FlightAware
11:17AM 23.1740 111.9010 100° East 430 495 22,900 -2,400 Level FlightAware
11:17AM 23.1530 112.0110 102° East 404 465 19,500 -3,120 Descending FlightAware
11:18AM 23.1380 112.1010 100° East 399 459 18,300 -1,560 Descending FlightAware
11:19AM 23.1250 112.1770 101° East 390 449 17,300 -960 Descending FlightAware
11:20AM 23.1080 112.2750 101° East 389 448 16,800 -1,380 Descending FlightAware
11:20AM 23.0910 112.3670 101° East 372 428 15,000 -1,860 Descending FlightAware
11:21AM 23.0780 112.4400 101° East 367 422 14,200 -1,200 Descending FlightAware
11:22AM 23.0700 112.5240 96° East 366 421 13,300 -1,200 Descending FlightAware
11:23AM 23.0690 112.5950 91° East 362 417 12,500 -900 Descending FlightAware
11:23AM 23.0640 112.6910 93° East 323 372 11,900 -420 Descending FlightAware
11:24AM 23.0410 112.7440 115° Southeast 284 327 11,900 -480 Level FlightAware
11:25AM 23.0180 112.8020 113° Southeast 268 308 11,300 -960 Descending FlightAware
11:26AM 22.9990 112.8740 106° East 261 300 10,300 -1,080 Descending FlightAware
11:26AM 22.9890 112.9110 106° East 259 298 9,800 -1,080 Descending FlightAware
11:26AM 22.9870 112.9240 99° East 260 299 9,600 -1,080 Descending FlightAware
11:27AM 22.9890 112.9610 87° East 256 295 9,100 -1,200 Descending FlightAware
11:27AM 22.9910 113.0010 87° East 258 297 8,400 -1,380 Descending FlightAware
11:28AM 22.9920 113.0160 86° East 260 299 8,100 -1,500 Descending FlightAware
11:28AM 22.9940 113.0530 87° East 268 308 7,400 -1,500 Descending FlightAware
11:28AM 22.9960 113.0800 85° East 266 306 7,000 -720 Descending FlightAware
11:29AM 22.9940 113.1110 94° East 250 288 6,900 -480 Descending FlightAware
11:29AM 22.9930 113.1430 92° East 234 269 6,600 -600 Descending FlightAware
11:30AM 22.9920 113.1590 94° East 227 261 6,500 -840 Descending FlightAware
11:30AM 23.0070 113.1890 61° Northeast 223 257 6,000 -900 Descending FlightAware
11:30AM 23.0140 113.1960 43° Northeast 224 258 5,900 -600 Descending FlightAware
11:31AM 23.0400 113.2140 32° Northeast 224 258 5,600 -720 Descending FlightAware
11:31AM 23.0560 113.2190 16° North 223 257 5,400 -720 Descending FlightAware
11:31AM 23.0870 113.2280 15° North 220 253 5,100 -660 Descending FlightAware
11:32AM 23.1100 113.2340 13° North 209 241 4,800 -780 Descending FlightAware
11:32AM 23.1250 113.2380 14° North 207 238 4,600 -600 Descending FlightAware
11:33AM 23.1470 113.2440 14° North 203 234 4,400 -600 Descending FlightAware
11:33AM 23.1620 113.2480 14° North 201 231 4,200 -1,080 Descending FlightAware
11:33AM 23.1900 113.2550 13° North 207 238 3,600 -1,140 Descending FlightAware
11:34AM 23.2120 113.2610 14° North 202 232 3,200 -1,140 Descending FlightAware
11:34AM 23.2390 113.2680 13° North 200 230 2,600 -1,080 Descending FlightAware
11:34AM 23.2530 113.2720 15° North 198 228 2,400 -1,080 Descending FlightAware
11:35AM 23.2750 113.2780 14° North 191 220 1,900 -1,080 Descending FlightAware
11:35AM 23.2880 113.2820 16° North 179 206 1,700 -840 Descending FlightAware
11:36AM 23.3100 113.2870 12° North 159 183 1,300 -480 Descending FlightAware
11:36AM 23.3260 113.2920 16° North 159 183 1,300  Level FlightAware
11:39AM 23.3924 113.2988 North  Level Estimated
11:40AM 23.3924 113.2988 223° Southwest  Level Estimated
11:41AM 23.3924 113.2988 223° Southwest  Level Estimated
11:42AM 23.3924 113.2988 223° Southwest  Level Estimated
11:43AM 23.3924 113.2988 223° Southwest  Level Estimated
11:44AM 23.3924 113.2988 223° Southwest  Level Estimated
11:45AM 23.3924 113.2988 223° Southwest  Level Estimated
11:46AM 23.3924 113.2988 223° Southwest  Level Estimated
11:47AM 23.3924 113.2988 223° Southwest  Level Estimated
11:48AM 23.3924 113.2988 223° Southwest  Level Estimated
11:49AM 23.3924 113.2988 223° Southwest  Level Estimated
11:50AM 23.3924 113.2988 223° Southwest  Level Estimated